sensor_id;sensor_type;location;lat;lon;timestamp;pressure;altitude;pressure_sealevel;temperature;humidity
48976;BME280;34791;52.752;8.346;2023-02-20T00:02:13;148991.16;;;6.11;100.00
48976;BME280;34791;52.752;8.346;2023-02-20T00:04:39;148980.88;;;6.07;100.00
48976;BME280;34791;52.752;8.346;2023-02-20T00:07:04;148984.72;;;6.08;100.00
48976;BME280;34791;52.752;8.346;2023-02-20T00:09:30;148984.72;;;6.08;100.00
48976;BME280;34791;52.752;8.346;2023-02-20T00:11:55;148973.09;;;6.04;100.00
48976;BME280;34791;52.752;8.346;2023-02-20T00:14:21;148970.50;;;6.03;100.00
48976;BME280;34791;52.752;8.346;2023-02-20T00:16:47;148983.44;;;6.08;100.00
48976;BME280;34791;52.752;8.346;2023-02-20T00:19:13;148980.88;;;6.07;100.00
48976;BME280;34791;52.752;8.346;2023-02-20T00:21:44;148970.50;;;6.03;100.00
48976;BME280;34791;52.752;8.346;2023-02-20T00:24:10;148975.66;;;6.05;100.00
48976;BME280;34791;52.752;8.346;2023-02-20T00:26:36;148983.44;;;6.08;100.00
48976;BME280;34791;52.752;8.346;2023-02-20T00:29:01;148979.56;;;6.06;100.00
48976;BME280;34791;52.752;8.346;2023-02-20T00:31:26;148980.88;;;6.07;100.00
48976;BME280;34791;52.752;8.346;2023-02-20T00:33:52;148991.16;;;6.11;100.00
48976;BME280;34791;52.752;8.346;2023-02-20T00:36:19;149001.47;;;6.15;100.00
48976;BME280;34791;52.752;8.346;2023-02-20T00:38:45;148988.59;;;6.10;100.00
48976;BME280;34791;52.752;8.346;2023-02-20T00:41:12;148998.91;;;6.14;100.00
48976;BME280;34791;52.752;8.346;2023-02-20T00:43:39;148991.16;;;6.11;100.00
48976;BME280;34791;52.752;8.346;2023-02-20T00:46:04;148957.63;;;5.98;100.00
48976;BME280;34791;52.752;8.346;2023-02-20T00:48:30;148984.72;;;6.08;100.00
48976;BME280;34791;52.752;8.346;2023-02-20T00:50:55;148998.91;;;6.14;100.00
48976;BME280;34791;52.752;8.346;2023-02-20T00:53:20;149002.75;;;6.15;100.00
48976;BME280;34791;52.752;8.346;2023-02-20T00:55:46;148997.59;;;6.13;100.00
48976;BME280;34791;52.752;8.346;2023-02-20T00:58:11;149006.63;;;6.17;100.00
48976;BME280;34791;52.752;8.346;2023-02-20T01:00:36;149009.25;;;6.18;100.00
48976;BME280;34791;52.752;8.346;2023-02-20T01:03:02;149005.34;;;6.16;100.00
48976;BME280;34791;52.752;8.346;2023-02-20T01:05:28;148988.59;;;6.10;100.00
48976;BME280;34791;52.752;8.346;2023-02-20T01:07:53;148992.47;;;6.11;100.00
48976;BME280;34791;52.752;8.346;2023-02-20T01:10:18;149004.06;;;6.16;100.00
48976;BME280;34791;52.752;8.346;2023-02-20T01:12:44;149000.19;;;6.14;100.00
48976;BME280;34791;52.752;8.346;2023-02-20T01:15:11;149001.47;;;6.15;100.00
48976;BME280;34791;52.752;8.346;2023-02-20T01:17:37;148986.03;;;6.09;100.00
48976;BME280;34791;52.752;8.346;2023-02-20T01:20:03;148989.88;;;6.10;100.00
48976;BME280;34791;52.752;8.346;2023-02-20T01:22:28;149010.53;;;6.19;100.00
48976;BME280;34791;52.752;8.346;2023-02-20T01:24:53;148984.72;;;6.08;100.00
48976;BME280;34791;52.752;8.346;2023-02-20T01:27:19;148975.66;;;6.05;100.00
48976;BME280;34791;52.752;8.346;2023-02-20T01:29:44;148975.66;;;6.05;100.00
48976;BME280;34791;52.752;8.346;2023-02-20T01:32:11;148952.47;;;5.96;100.00
48976;BME280;34791;52.752;8.346;2023-02-20T01:34:37;148978.28;;;6.06;100.00
48976;BME280;34791;52.752;8.346;2023-02-20T01:37:02;148962.78;;;6.00;100.00
48976;BME280;34791;52.752;8.346;2023-02-20T01:39:28;148967.94;;;6.02;100.00
48976;BME280;34791;52.752;8.346;2023-02-20T01:42:00;148975.66;;;6.05;100.00
48976;BME280;34791;52.752;8.346;2023-02-20T01:44:29;148971.81;;;6.03;100.00
48976;BME280;34791;52.752;8.346;2023-02-20T01:46:56;148975.66;;;6.05;100.00
48976;BME280;34791;52.752;8.346;2023-02-20T01:52:05;148988.59;;;6.10;100.00
48976;BME280;34791;52.752;8.346;2023-02-20T01:54:35;149004.06;;;6.16;100.00
48976;BME280;34791;52.752;8.346;2023-02-20T01:57:04;148988.59;;;6.10;100.00
48976;BME280;34791;52.752;8.346;2023-02-20T01:59:34;149004.06;;;6.16;100.00
48976;BME280;34791;52.752;8.346;2023-02-20T02:02:01;149001.47;;;6.15;100.00
48976;BME280;34791;52.752;8.346;2023-02-20T02:04:28;149010.53;;;6.19;100.00
48976;BME280;34791;52.752;8.346;2023-02-20T02:06:53;149009.25;;;6.18;100.00
48976;BME280;34791;52.752;8.346;2023-02-20T02:09:31;148996.31;;;6.13;100.00
48976;BME280;34791;52.752;8.346;2023-02-20T02:11:58;148980.88;;;6.07;100.00
48976;BME280;34791;52.752;8.346;2023-02-20T02:14:24;148988.59;;;6.10;100.00
48976;BME280;34791;52.752;8.346;2023-02-20T02:35:19;148958.91;;;5.98;100.00
48976;BME280;34791;52.752;8.346;2023-02-20T02:40:41;148958.91;;;5.98;100.00
48976;BME280;34791;52.752;8.346;2023-02-20T02:43:19;148980.88;;;6.07;100.00
48976;BME280;34791;52.752;8.346;2023-02-20T02:45:54;149006.63;;;6.17;100.00
48976;BME280;34791;52.752;8.346;2023-02-20T02:48:26;149014.41;;;6.20;100.00
48976;BME280;34791;52.752;8.346;2023-02-20T02:50:56;149004.06;;;6.16;100.00
48976;BME280;34791;52.752;8.346;2023-02-20T02:53:23;149010.53;;;6.19;100.00
48976;BME280;34791;52.752;8.346;2023-02-20T02:55:48;149028.56;;;6.26;100.00
48976;BME280;34791;52.752;8.346;2023-02-20T02:58:15;149037.59;;;6.29;100.00
48976;BME280;34791;52.752;8.346;2023-02-20T03:00:55;149032.44;;;6.27;100.00
48976;BME280;34791;52.752;8.346;2023-02-20T03:03:33;149038.88;;;6.30;100.00
48976;BME280;34791;52.752;8.346;2023-02-20T03:06:06;149078.94;;;6.45;100.00
48976;BME280;34791;52.752;8.346;2023-02-20T03:11:17;149081.50;;;6.46;100.00
48976;BME280;34791;52.752;8.346;2023-02-20T03:14:10;149103.47;;;6.55;100.00
48976;BME280;34791;52.752;8.346;2023-02-20T03:19:41;149108.63;;;6.57;100.00
48976;BME280;34791;52.752;8.346;2023-02-20T03:22:20;149118.94;;;6.61;100.00
48976;BME280;34791;52.752;8.346;2023-02-20T03:24:50;149117.63;;;6.61;100.00
48976;BME280;34791;52.752;8.346;2023-02-20T03:30:07;149117.63;;;6.61;100.00
48976;BME280;34791;52.752;8.346;2023-02-20T03:32:35;149133.16;;;6.67;100.00
48976;BME280;34791;52.752;8.346;2023-02-20T03:35:21;149129.22;;;6.65;100.00
48976;BME280;34791;52.752;8.346;2023-02-20T03:38:08;149137.00;;;6.68;100.00
48976;BME280;34791;52.752;8.346;2023-02-20T03:40:55;149140.88;;;6.70;100.00
48976;BME280;34791;52.752;8.346;2023-02-20T03:43:41;149138.31;;;6.69;100.00
48976;BME280;34791;52.752;8.346;2023-02-20T03:46:11;149140.88;;;6.70;100.00
48976;BME280;34791;52.752;8.346;2023-02-20T03:49:10;149138.31;;;6.69;100.00
48976;BME280;34791;52.752;8.346;2023-02-20T03:51:36;149130.53;;;6.66;100.00
48976;BME280;34791;52.752;8.346;2023-02-20T03:54:02;149127.94;;;6.65;100.00
48976;BME280;34791;52.752;8.346;2023-02-20T03:56:31;149146.03;;;6.72;100.00
48976;BME280;34791;52.752;8.346;2023-02-20T03:59:03;149140.88;;;6.70;100.00
48976;BME280;34791;52.752;8.346;2023-02-20T04:01:32;149146.03;;;6.72;100.00
48976;BME280;34791;52.752;8.346;2023-02-20T04:03:59;149153.78;;;6.75;100.00
48976;BME280;34791;52.752;8.346;2023-02-20T04:06:27;149149.91;;;6.73;100.00
48976;BME280;34791;52.752;8.346;2023-02-20T04:09:02;149148.63;;;6.73;100.00
48976;BME280;34791;52.752;8.346;2023-02-20T04:11:36;149153.78;;;6.75;100.00
48976;BME280;34791;52.752;8.346;2023-02-20T04:14:04;149140.88;;;6.70;100.00
48976;BME280;34791;52.752;8.346;2023-02-20T04:16:35;149148.63;;;6.73;100.00
48976;BME280;34791;52.752;8.346;2023-02-20T04:19:03;149148.63;;;6.73;100.00
48976;BME280;34791;52.752;8.346;2023-02-20T04:21:37;149151.19;;;6.74;100.00
48976;BME280;34791;52.752;8.346;2023-02-20T04:24:12;149169.28;;;6.81;100.00
48976;BME280;34791;52.752;8.346;2023-02-20T04:26:40;149174.44;;;6.83;100.00
48976;BME280;34791;52.752;8.346;2023-02-20T04:29:05;149157.63;;;6.76;100.00
48976;BME280;34791;52.752;8.346;2023-02-20T04:31:31;149155.06;;;6.75;100.00
48976;BME280;34791;52.752;8.346;2023-02-20T04:33:57;149146.03;;;6.72;100.00
48976;BME280;34791;52.752;8.346;2023-02-20T04:36:22;149153.78;;;6.75;100.00
48976;BME280;34791;52.752;8.346;2023-02-20T04:38:48;149165.41;;;6.80;100.00
48976;BME280;34791;52.752;8.346;2023-02-20T04:41:14;149166.72;;;6.80;100.00
48976;BME280;34791;52.752;8.346;2023-02-20T04:43:39;149168.00;;;6.81;100.00
48976;BME280;34791;52.752;8.346;2023-02-20T04:46:05;149165.41;;;6.80;100.00
48976;BME280;34791;52.752;8.346;2023-02-20T04:48:30;149177.03;;;6.84;100.00
48976;BME280;34791;52.752;8.346;2023-02-20T04:50:55;149171.88;;;6.82;100.00
48976;BME280;34791;52.752;8.346;2023-02-20T04:53:21;149166.72;;;6.80;100.00
48976;BME280;34791;52.752;8.346;2023-02-20T04:55:46;149151.19;;;6.74;100.00
48976;BME280;34791;52.752;8.346;2023-02-20T04:58:12;149146.03;;;6.72;100.00
48976;BME280;34791;52.752;8.346;2023-02-20T05:00:37;149152.47;;;6.74;100.00
48976;BME280;34791;52.752;8.346;2023-02-20T05:03:02;149138.31;;;6.69;100.00
48976;BME280;34791;52.752;8.346;2023-02-20T05:05:28;149133.16;;;6.67;100.00
48976;BME280;34791;52.752;8.346;2023-02-20T05:07:55;149120.22;;;6.62;100.00
48976;BME280;34791;52.752;8.346;2023-02-20T05:10:22;149134.44;;;6.67;100.00
48976;BME280;34791;52.752;8.346;2023-02-20T05:12:47;149112.47;;;6.59;100.00
48976;BME280;34791;52.752;8.346;2023-02-20T05:15:13;149109.91;;;6.58;100.00
48976;BME280;34791;52.752;8.346;2023-02-20T05:17:39;149104.75;;;6.56;100.00
48976;BME280;34791;52.752;8.346;2023-02-20T05:20:05;149112.47;;;6.59;100.00
48976;BME280;34791;52.752;8.346;2023-02-20T05:22:30;149090.53;;;6.50;100.00
48976;BME280;34791;52.752;8.346;2023-02-20T05:24:56;149096.97;;;6.53;100.00
48976;BME280;34791;52.752;8.346;2023-02-20T05:27:23;149094.38;;;6.52;100.00
48976;BME280;34791;52.752;8.346;2023-02-20T05:29:53;149095.69;;;6.52;100.00
48976;BME280;34791;52.752;8.346;2023-02-20T05:32:20;149094.38;;;6.52;100.00
48976;BME280;34791;52.752;8.346;2023-02-20T05:34:46;149081.50;;;6.46;100.00
48976;BME280;34791;52.752;8.346;2023-02-20T05:37:12;149099.53;;;6.54;100.00
48976;BME280;34791;52.752;8.346;2023-02-20T05:39:38;149100.88;;;6.54;100.00
48976;BME280;34791;52.752;8.346;2023-02-20T05:42:04;149086.66;;;6.49;100.00
48976;BME280;34791;52.752;8.346;2023-02-20T05:44:30;149081.50;;;6.46;100.00
48976;BME280;34791;52.752;8.346;2023-02-20T05:46:56;149099.53;;;6.54;100.00
48976;BME280;34791;52.752;8.346;2023-02-20T05:49:22;149086.66;;;6.49;100.00
48976;BME280;34791;52.752;8.346;2023-02-20T05:51:48;149085.38;;;6.48;100.00
48976;BME280;34791;52.752;8.346;2023-02-20T05:54:15;149086.66;;;6.49;100.00
48976;BME280;34791;52.752;8.346;2023-02-20T05:56:42;149086.66;;;6.49;100.00
48976;BME280;34791;52.752;8.346;2023-02-20T05:59:08;149077.63;;;6.45;100.00
48976;BME280;34791;52.752;8.346;2023-02-20T06:01:33;149060.84;;;6.38;100.00
48976;BME280;34791;52.752;8.346;2023-02-20T06:03:59;149078.94;;;6.45;100.00
48976;BME280;34791;52.752;8.346;2023-02-20T06:06:35;149073.78;;;6.43;100.00
48976;BME280;34791;52.752;8.346;2023-02-20T06:09:02;149089.25;;;6.50;100.00
48976;BME280;34791;52.752;8.346;2023-02-20T06:11:27;149078.94;;;6.45;100.00
48976;BME280;34791;52.752;8.346;2023-02-20T06:13:53;149096.97;;;6.53;100.00
48976;BME280;34791;52.752;8.346;2023-02-20T06:16:26;149102.16;;;6.55;100.00
48976;BME280;34791;52.752;8.346;2023-02-20T06:18:53;149106.03;;;6.56;100.00
48976;BME280;34791;52.752;8.346;2023-02-20T06:21:19;149099.53;;;6.54;100.00
48976;BME280;34791;52.752;8.346;2023-02-20T06:23:48;149104.75;;;6.56;100.00
48976;BME280;34791;52.752;8.346;2023-02-20T06:26:14;149107.31;;;6.57;100.00
48976;BME280;34791;52.752;8.346;2023-02-20T06:28:40;149117.63;;;6.61;100.00
48976;BME280;34791;52.752;8.346;2023-02-20T06:31:07;149125.38;;;6.64;100.00
48976;BME280;34791;52.752;8.346;2023-02-20T06:33:33;149127.94;;;6.65;100.00
48976;BME280;34791;52.752;8.346;2023-02-20T06:35:58;149122.78;;;6.63;100.00
48976;BME280;34791;52.752;8.346;2023-02-20T06:38:24;149116.34;;;6.60;100.00
48976;BME280;34791;52.752;8.346;2023-02-20T06:40:50;149118.94;;;6.61;100.00
48976;BME280;34791;52.752;8.346;2023-02-20T06:43:16;149131.84;;;6.66;100.00
48976;BME280;34791;52.752;8.346;2023-02-20T06:45:41;149125.38;;;6.64;100.00
48976;BME280;34791;52.752;8.346;2023-02-20T06:48:08;149125.38;;;6.64;100.00
48976;BME280;34791;52.752;8.346;2023-02-20T06:50:34;149135.72;;;6.68;100.00
48976;BME280;34791;52.752;8.346;2023-02-20T06:52:59;149143.47;;;6.71;100.00
48976;BME280;34791;52.752;8.346;2023-02-20T06:55:25;149147.31;;;6.72;100.00
48976;BME280;34791;52.752;8.346;2023-02-20T06:57:50;149146.03;;;6.72;100.00
48976;BME280;34791;52.752;8.346;2023-02-20T07:00:16;149140.88;;;6.70;100.00
48976;BME280;34791;52.752;8.346;2023-02-20T07:02:42;149151.19;;;6.74;100.00
48976;BME280;34791;52.752;8.346;2023-02-20T07:05:09;149148.63;;;6.73;100.00
48976;BME280;34791;52.752;8.346;2023-02-20T07:07:35;149153.78;;;6.75;100.00
48976;BME280;34791;52.752;8.346;2023-02-20T07:10:00;149170.56;;;6.82;100.00
48976;BME280;34791;52.752;8.346;2023-02-20T07:12:29;149173.16;;;6.83;100.00
48976;BME280;34791;52.752;8.346;2023-02-20T07:14:55;149174.44;;;6.83;100.00
48976;BME280;34791;52.752;8.346;2023-02-20T07:17:20;149182.19;;;6.86;100.00
48976;BME280;34791;52.752;8.346;2023-02-20T07:19:46;149174.44;;;6.83;100.00
48976;BME280;34791;52.752;8.346;2023-02-20T07:22:11;149186.03;;;6.88;100.00
48976;BME280;34791;52.752;8.346;2023-02-20T07:24:36;149184.75;;;6.87;100.00
48976;BME280;34791;52.752;8.346;2023-02-20T07:27:02;149195.13;;;6.91;100.00
48976;BME280;34791;52.752;8.346;2023-02-20T07:29:27;149200.28;;;6.93;100.00
48976;BME280;34791;52.752;8.346;2023-02-20T07:31:53;149202.84;;;6.94;100.00
48976;BME280;34791;52.752;8.346;2023-02-20T07:34:18;149196.41;;;6.92;100.00
48976;BME280;34791;52.752;8.346;2023-02-20T07:36:43;149211.88;;;6.98;100.00
48976;BME280;34791;52.752;8.346;2023-02-20T07:39:10;149223.47;;;7.02;100.00
48976;BME280;34791;52.752;8.346;2023-02-20T07:41:36;149223.47;;;7.02;100.00
48976;BME280;34791;52.752;8.346;2023-02-20T07:44:02;149239.00;;;7.09;100.00
48976;BME280;34791;52.752;8.346;2023-02-20T07:46:28;149242.88;;;7.10;100.00
48976;BME280;34791;52.752;8.346;2023-02-20T07:48:58;149255.81;;;7.15;100.00
48976;BME280;34791;52.752;8.346;2023-02-20T07:51:23;149257.09;;;7.16;100.00
48976;BME280;34791;52.752;8.346;2023-02-20T07:53:50;149264.84;;;7.19;100.00
48976;BME280;34791;52.752;8.346;2023-02-20T07:56:16;149272.56;;;7.22;100.00
48976;BME280;34791;52.752;8.346;2023-02-20T07:58:42;149285.50;;;7.27;100.00
48976;BME280;34791;52.752;8.346;2023-02-20T08:01:07;149295.84;;;7.31;100.00
48976;BME280;34791;52.752;8.346;2023-02-20T08:03:33;149285.50;;;7.27;100.00
48976;BME280;34791;52.752;8.346;2023-02-20T08:05:58;149319.09;;;7.40;100.00
48976;BME280;34791;52.752;8.346;2023-02-20T08:08:24;149321.66;;;7.41;100.00
48976;BME280;34791;52.752;8.346;2023-02-20T08:10:50;149293.25;;;7.30;100.00
48976;BME280;34791;52.752;8.346;2023-02-20T08:13:16;149325.53;;;7.43;100.00
48976;BME280;34791;52.752;8.346;2023-02-20T08:15:42;149334.56;;;7.46;100.00
48976;BME280;34791;52.752;8.346;2023-02-20T08:18:09;149343.59;;;7.50;100.00
48976;BME280;34791;52.752;8.346;2023-02-20T08:20:36;149363.00;;;7.57;100.00
48976;BME280;34791;52.752;8.346;2023-02-20T08:23:01;149363.00;;;7.57;100.00
48976;BME280;34791;52.752;8.346;2023-02-20T08:25:29;149365.56;;;7.58;100.00
48976;BME280;34791;52.752;8.346;2023-02-20T08:27:55;149375.88;;;7.62;100.00
48976;BME280;34791;52.752;8.346;2023-02-20T08:30:24;149378.53;;;7.63;100.00
48976;BME280;34791;52.752;8.346;2023-02-20T08:32:50;149388.84;;;7.68;100.00
48976;BME280;34791;52.752;8.346;2023-02-20T08:35:16;149404.31;;;7.74;100.00
48976;BME280;34791;52.752;8.346;2023-02-20T08:37:41;149409.53;;;7.76;100.00
48976;BME280;34791;52.752;8.346;2023-02-20T08:40:08;149419.84;;;7.80;100.00
48976;BME280;34791;52.752;8.346;2023-02-20T08:42:33;149422.44;;;7.81;100.00
48976;BME280;34791;52.752;8.346;2023-02-20T08:45:00;149425.00;;;7.82;100.00
48976;BME280;34791;52.752;8.346;2023-02-20T08:47:25;149417.28;;;7.79;100.00
48976;BME280;34791;52.752;8.346;2023-02-20T08:49:51;149430.16;;;7.84;100.00
48976;BME280;34791;52.752;8.346;2023-02-20T08:52:16;149440.53;;;7.88;100.00
48976;BME280;34791;52.752;8.346;2023-02-20T08:54:46;149443.13;;;7.89;100.00
48976;BME280;34791;52.752;8.346;2023-02-20T08:57:12;149456.00;;;7.94;100.00
48976;BME280;34791;52.752;8.346;2023-02-20T08:59:37;149457.31;;;7.94;100.00
48976;BME280;34791;52.752;8.346;2023-02-20T09:02:04;149471.56;;;8.00;100.00
48976;BME280;34791;52.752;8.346;2023-02-20T09:04:29;149462.47;;;7.97;100.00
48976;BME280;34791;52.752;8.346;2023-02-20T09:06:55;149466.34;;;7.98;100.00
48976;BME280;34791;52.752;8.346;2023-02-20T09:09:20;149480.59;;;8.04;100.00
48976;BME280;34791;52.752;8.346;2023-02-20T09:11:45;149483.16;;;8.05;100.00
48976;BME280;34791;52.752;8.346;2023-02-20T09:14:11;149498.66;;;8.11;100.00
48976;BME280;34791;52.752;8.346;2023-02-20T09:16:36;149496.06;;;8.10;100.00
48976;BME280;34791;52.752;8.346;2023-02-20T09:19:06;149507.72;;;8.14;100.00
48976;BME280;34791;52.752;8.346;2023-02-20T09:21:31;149518.06;;;8.18;100.00
48976;BME280;34791;52.752;8.346;2023-02-20T09:23:56;149509.03;;;8.15;100.00
48976;BME280;34791;52.752;8.346;2023-02-20T09:26:22;149525.81;;;8.21;100.00
48976;BME280;34791;52.752;8.346;2023-02-20T09:28:47;149538.75;;;8.27;100.00
48976;BME280;34791;52.752;8.346;2023-02-20T09:31:13;149538.75;;;8.27;100.00
48976;BME280;34791;52.752;8.346;2023-02-20T09:33:38;149555.53;;;8.33;100.00
48976;BME280;34791;52.752;8.346;2023-02-20T09:36:04;149564.66;;;8.37;100.00
48976;BME280;34791;52.752;8.346;2023-02-20T09:38:29;149577.56;;;8.42;100.00
48976;BME280;34791;52.752;8.346;2023-02-20T09:40:59;149585.31;;;8.45;100.00
48976;BME280;34791;52.752;8.346;2023-02-20T09:43:42;149591.78;;;8.47;100.00
48976;BME280;34791;52.752;8.346;2023-02-20T09:46:19;149616.34;;;8.57;100.00
48976;BME280;34791;52.752;8.346;2023-02-20T09:51:37;149624.13;;;8.60;100.00
48976;BME280;34791;52.752;8.346;2023-02-20T09:56:34;149639.63;;;8.66;100.00
48976;BME280;34791;52.752;8.346;2023-02-20T10:01:34;149638.34;;;8.66;100.00
48976;BME280;34791;52.752;8.346;2023-02-20T10:04:16;149634.47;;;8.64;100.00
48976;BME280;34791;52.752;8.346;2023-02-20T10:06:45;149659.06;;;8.74;100.00
48976;BME280;34791;52.752;8.346;2023-02-20T10:09:14;149653.84;;;8.72;100.00
48976;BME280;34791;52.752;8.346;2023-02-20T10:14:59;149665.50;;;8.76;100.00
48976;BME280;34791;52.752;8.346;2023-02-20T10:17:37;149666.78;;;8.77;100.00
48976;BME280;34791;52.752;8.346;2023-02-20T10:25:27;149662.94;;;8.75;100.00
48976;BME280;34791;52.752;8.346;2023-02-20T10:38:10;149682.28;;;8.83;100.00
48976;BME280;34791;52.752;8.346;2023-02-20T10:40:58;149670.66;;;8.78;100.00
48976;BME280;34791;52.752;8.346;2023-02-20T10:43:34;149675.84;;;8.80;100.00
48976;BME280;34791;52.752;8.346;2023-02-20T10:48:38;149686.22;;;8.85;100.00
48976;BME280;34791;52.752;8.346;2023-02-20T10:59:28;149695.25;;;8.88;100.00
48976;BME280;34791;52.752;8.346;2023-02-20T11:01:54;149693.97;;;8.88;100.00
48976;BME280;34791;52.752;8.346;2023-02-20T11:04:23;149691.38;;;8.87;100.00
48976;BME280;34791;52.752;8.346;2023-02-20T11:06:59;149701.72;;;8.91;100.00
48976;BME280;34791;52.752;8.346;2023-02-20T11:09:25;149688.78;;;8.86;100.00
48976;BME280;34791;52.752;8.346;2023-02-20T11:11:52;149696.53;;;8.89;100.00
48976;BME280;34791;52.752;8.346;2023-02-20T11:14:25;149696.53;;;8.89;100.00
48976;BME280;34791;52.752;8.346;2023-02-20T11:16:57;149681.00;;;8.82;100.00
48976;BME280;34791;52.752;8.346;2023-02-20T11:19:33;149671.97;;;8.79;100.00
48976;BME280;34791;52.752;8.346;2023-02-20T11:22:04;149665.50;;;8.76;100.00
48976;BME280;34791;52.752;8.346;2023-02-20T11:24:30;149668.09;;;8.77;100.00
48976;BME280;34791;52.752;8.346;2023-02-20T11:27:09;149649.97;;;8.70;100.00
48976;BME280;34791;52.752;8.346;2023-02-20T11:30:00;149652.53;;;8.71;100.00
48976;BME280;34791;52.752;8.346;2023-02-20T11:37:41;149635.75;;;8.65;100.00
48976;BME280;34791;52.752;8.346;2023-02-20T11:40:33;149633.19;;;8.64;100.00
48976;BME280;34791;52.752;8.346;2023-02-20T11:43:21;149644.78;;;8.68;100.00
48976;BME280;34791;52.752;8.346;2023-02-20T11:45:48;149633.19;;;8.64;100.00
48976;BME280;34791;52.752;8.346;2023-02-20T11:48:19;149631.88;;;8.63;100.00
48976;BME280;34791;52.752;8.346;2023-02-20T11:50:49;149635.75;;;8.65;100.00
48976;BME280;34791;52.752;8.346;2023-02-20T11:53:26;149633.19;;;8.64;100.00
48976;BME280;34791;52.752;8.346;2023-02-20T11:56:15;149631.88;;;8.63;100.00
48976;BME280;34791;52.752;8.346;2023-02-20T11:58:44;149661.63;;;8.75;100.00
48976;BME280;34791;52.752;8.346;2023-02-20T12:01:35;149639.63;;;8.66;100.00
48976;BME280;34791;52.752;8.346;2023-02-20T12:04:17;149629.31;;;8.62;100.00
48976;BME280;34791;52.752;8.346;2023-02-20T12:06:43;149637.06;;;8.65;100.00
48976;BME280;34791;52.752;8.346;2023-02-20T12:09:18;149646.09;;;8.69;100.00
48976;BME280;34791;52.752;8.346;2023-02-20T12:11:45;149656.47;;;8.73;100.00
48976;BME280;34791;52.752;8.346;2023-02-20T12:14:13;149644.78;;;8.68;100.00
48976;BME280;34791;52.752;8.346;2023-02-20T12:22:28;149679.72;;;8.82;100.00
48976;BME280;34791;52.752;8.346;2023-02-20T12:27:51;149704.28;;;8.92;100.00
48976;BME280;34791;52.752;8.346;2023-02-20T12:30:43;149704.28;;;8.92;100.00
48976;BME280;34791;52.752;8.346;2023-02-20T12:33:24;149704.28;;;8.92;100.00
48976;BME280;34791;52.752;8.346;2023-02-20T12:35:59;149703.00;;;8.91;100.00
48976;BME280;34791;52.752;8.346;2023-02-20T12:38:47;149731.47;;;9.02;100.00
48976;BME280;34791;52.752;8.346;2023-02-20T12:44:17;149725.00;;;9.00;100.00
48976;BME280;34791;52.752;8.346;2023-02-20T12:47:15;149746.97;;;9.08;100.00
48976;BME280;34791;52.752;8.346;2023-02-20T13:00:42;149767.69;;;9.17;100.00
48976;BME280;34791;52.752;8.346;2023-02-20T13:03:12;149778.06;;;9.21;100.00
48976;BME280;34791;52.752;8.346;2023-02-20T13:05:41;149778.06;;;9.21;100.00
48976;BME280;34791;52.752;8.346;2023-02-20T13:08:15;149778.06;;;9.21;100.00
48976;BME280;34791;52.752;8.346;2023-02-20T13:10:52;149796.13;;;9.28;100.00
48976;BME280;34791;52.752;8.346;2023-02-20T13:13:20;149824.59;;;9.39;100.00
48976;BME280;34791;52.752;8.346;2023-02-20T13:16:12;149805.19;;;9.31;100.00
48976;BME280;34791;52.752;8.346;2023-02-20T13:18:42;149785.81;;;9.24;100.00
48976;BME280;34791;52.752;8.346;2023-02-20T13:21:17;149797.44;;;9.28;100.00
48976;BME280;34791;52.752;8.346;2023-02-20T13:23:44;149794.84;;;9.27;100.00
48976;BME280;34791;52.752;8.346;2023-02-20T13:29:16;149807.75;;;9.32;100.00
48976;BME280;34791;52.752;8.346;2023-02-20T13:31:46;149807.75;;;9.32;100.00
48976;BME280;34791;52.752;8.346;2023-02-20T13:47:02;149781.94;;;9.22;100.00
48976;BME280;34791;52.752;8.346;2023-02-20T13:55:21;149802.59;;;9.30;100.00
48976;BME280;34791;52.752;8.346;2023-02-20T13:57:56;149789.69;;;9.25;100.00
48976;BME280;34791;52.752;8.346;2023-02-20T14:02:56;149781.94;;;9.22;100.00
48976;BME280;34791;52.752;8.346;2023-02-20T14:07:49;149758.63;;;9.13;100.00
48976;BME280;34791;52.752;8.346;2023-02-20T14:10:35;149734.03;;;9.03;100.00
48976;BME280;34791;52.752;8.346;2023-02-20T14:13:11;149735.34;;;9.04;100.00
48976;BME280;34791;52.752;8.346;2023-02-20T14:18:18;149759.94;;;9.14;100.00
48976;BME280;34791;52.752;8.346;2023-02-20T14:20:44;149740.50;;;9.06;100.00
48976;BME280;34791;52.752;8.346;2023-02-20T14:23:18;149740.50;;;9.06;100.00
48976;BME280;34791;52.752;8.346;2023-02-20T14:25:57;149735.34;;;9.04;100.00
48976;BME280;34791;52.752;8.346;2023-02-20T14:28:23;149739.22;;;9.05;100.00
48976;BME280;34791;52.752;8.346;2023-02-20T14:31:03;149725.00;;;9.00;100.00
48976;BME280;34791;52.752;8.346;2023-02-20T14:33:30;149735.34;;;9.04;100.00
48976;BME280;34791;52.752;8.346;2023-02-20T14:38:45;149723.72;;;8.99;100.00
48976;BME280;34791;52.752;8.346;2023-02-20T14:41:17;149713.34;;;8.95;100.00
48976;BME280;34791;52.752;8.346;2023-02-20T14:43:43;149712.03;;;8.95;100.00
48976;BME280;34791;52.752;8.346;2023-02-20T14:46:22;149715.91;;;8.96;100.00
48976;BME280;34791;52.752;8.346;2023-02-20T14:48:48;149721.13;;;8.98;100.00
48976;BME280;34791;52.752;8.346;2023-02-20T14:51:16;149714.63;;;8.96;100.00
48976;BME280;34791;52.752;8.346;2023-02-20T14:53:43;149710.75;;;8.94;100.00
48976;BME280;34791;52.752;8.346;2023-02-20T14:56:15;149713.34;;;8.95;100.00
48976;BME280;34791;52.752;8.346;2023-02-20T14:58:45;149710.75;;;8.94;100.00
48976;BME280;34791;52.752;8.346;2023-02-20T15:01:38;149704.28;;;8.92;100.00
48976;BME280;34791;52.752;8.346;2023-02-20T15:04:12;149714.63;;;8.96;100.00
48976;BME280;34791;52.752;8.346;2023-02-20T15:06:42;149717.25;;;8.97;100.00
48976;BME280;34791;52.752;8.346;2023-02-20T15:09:09;149717.25;;;8.97;100.00
48976;BME280;34791;52.752;8.346;2023-02-20T15:11:43;149727.59;;;9.01;100.00